Time;durP1;ratioP1;P1;durP2;ratioP2;P2;SDS_P1;SDS_P2;PMS_P1;PMS_P2;Temp;Humidity;BMP_temperature;BMP_pressure;BME280_temperature;BME280_humidity;BME280_pressure;Samples;Min_cycle;Max_cycle;Signal;HPM_P1;HPM_P2
2023/10/14 00:01:03;;;;;;;13.75;2.17;;;9.20;97.00;;;;;;5038595;28;20044;-76
2023/10/14 00:03:33;;;;;;;16.97;2.33;;;9.10;97.20;;;;;;5016068;28;20033;-76
2023/10/14 00:06:00;;;;;;;;;;;9.00;97.20;;;;;;5033567;28;20043;-75
2023/10/14 00:08:31;;;;;;;11.55;1.75;;;9.00;97.40;;;;;;5022732;28;20713;-75
2023/10/14 00:11:00;;;;;;;13.05;1.90;;;9.00;97.00;;;;;;5030496;28;20060;-76
2023/10/14 00:13:30;;;;;;;10.02;2.00;;;9.10;96.90;;;;;;5022523;28;20029;-74
2023/10/14 00:16:00;;;;;;;10.68;2.38;;;9.00;96.90;;;;;;5037950;28;20043;-75
2023/10/14 00:18:26;;;;;;;11.88;1.83;;;9.00;97.20;;;;;;5023516;28;20051;-75
2023/10/14 00:20:52;;;;;;;12.52;1.92;;;8.90;97.90;;;;;;5037866;28;20489;-74
2023/10/14 00:23:17;;;;;;;10.32;1.75;;;8.80;97.80;;;;;;5018509;28;20037;-75
2023/10/14 00:25:43;;;;;;;8.07;1.85;;;8.70;97.80;;;;;;5035541;28;20127;-75
2023/10/14 00:28:12;;;;;;;12.98;1.95;;;8.70;98.20;;;;;;5022739;28;20780;-74
2023/10/14 00:30:38;;;;;;;8.73;1.60;;;8.60;98.50;;;;;;5031602;28;20033;-75
2023/10/14 00:33:04;;;;;;;11.48;1.65;;;8.60;98.40;;;;;;5020339;28;20489;-75
2023/10/14 00:35:30;;;;;;;5.53;1.80;;;8.60;98.60;;;;;;5033011;28;20044;-75
2023/10/14 00:37:55;;;;;;;15.27;1.92;;;8.50;98.70;;;;;;5017800;28;20075;-76
2023/10/14 00:40:23;;;;;;;9.57;1.58;;;8.50;98.90;;;;;;5035821;28;20029;-75
2023/10/14 00:42:51;;;;;;;9.02;2.03;;;8.50;98.90;;;;;;5018979;28;20048;-75
2023/10/14 00:45:20;;;;;;;9.77;2.33;;;8.40;99.10;;;;;;5036380;28;20037;-75
2023/10/14 00:47:47;;;;;;;;;;;8.40;99.20;;;;;;5041329;28;20429;-76
2023/10/14 00:50:27;;;;;;;7.15;1.17;;;8.40;99.40;;;;;;5035281;28;19917;-75
2023/10/14 00:52:57;;;;;;;8.48;1.98;;;8.40;99.60;;;;;;5061174;28;20143;-75
2023/10/14 00:55:26;;;;;;;7.85;1.27;;;8.50;99.60;;;;;;5024048;28;20048;-76
2023/10/14 00:57:54;;;;;;;8.57;1.50;;;8.50;99.60;;;;;;5030173;28;20064;-75
2023/10/14 01:00:33;;;;;;;7.43;1.35;;;8.50;99.60;;;;;;5022400;28;20065;-75
2023/10/14 01:03:01;;;;;;;12.35;1.70;;;8.50;99.70;;;;;;5031275;28;20060;-76
2023/10/14 01:05:29;;;;;;;11.68;1.95;;;8.50;99.70;;;;;;5022112;28;20029;-75
2023/10/14 01:07:58;;;;;;;6.80;1.50;;;8.50;99.70;;;;;;5031653;28;20067;-74
2023/10/14 01:10:25;;;;;;;10.95;1.60;;;8.50;99.60;;;;;;5017309;28;20553;-74
2023/10/14 01:12:54;;;;;;;7.70;1.73;;;8.50;99.60;;;;;;5036383;28;20037;-75
2023/10/14 01:15:21;;;;;;;;;;;8.50;99.70;;;;;;5023525;28;20043;-75
2023/10/14 01:17:47;;;;;;;14.50;2.40;;;8.50;99.60;;;;;;5033198;28;20021;-75
2023/10/14 01:22:41;;;;;;;8.75;1.80;;;8.50;99.60;;;;;;5036879;28;20068;-75
2023/10/14 01:25:12;;;;;;;12.00;2.40;;;8.50;99.60;;;;;;5018407;28;20021;-75
2023/10/14 01:27:42;;;;;;;11.02;1.73;;;8.50;99.50;;;;;;5033255;28;20057;-77
2023/10/14 01:30:11;;;;;;;10.70;1.30;;;8.50;99.40;;;;;;5017286;28;20497;-75
2023/10/14 01:32:56;;;;;;;20.50;3.05;;;8.50;99.50;;;;;;5033671;28;20040;-75
2023/10/14 01:37:48;;;;;;;9.30;2.25;;;8.50;99.40;;;;;;5026060;28;20489;-77
2023/10/14 01:40:27;;;;;;;9.27;2.53;;;8.40;99.50;;;;;;5018060;28;20030;-77
2023/10/14 01:42:57;;;;;;;7.30;1.45;;;8.50;99.60;;;;;;5032286;28;20025;-76
2023/10/14 01:45:27;;;;;;;10.80;1.30;;;8.40;99.60;;;;;;5019511;28;20033;-75
2023/10/14 01:48:12;;;;;;;10.02;1.67;;;8.30;99.70;;;;;;5034977;28;20037;-76
2023/10/14 01:50:39;;;;;;;9.30;1.40;;;8.20;99.80;;;;;;5017826;28;20041;-76
2023/10/14 01:53:10;;;;;;;14.82;2.58;;;8.10;99.90;;;;;;5037788;28;20037;-76
2023/10/14 01:55:38;;;;;;;14.73;1.95;;;8.10;99.90;;;;;;5021698;28;20075;-76
2023/10/14 01:58:09;;;;;;;15.63;2.05;;;8.20;99.90;;;;;;5029617;28;20043;-76
2023/10/14 02:00:37;;;;;;;10.40;1.67;;;8.20;99.90;;;;;;5020968;28;20032;-76
2023/10/14 02:03:06;;;;;;;16.57;2.03;;;8.20;99.80;;;;;;5018751;28;20407;-76
2023/10/14 02:05:39;;;;;;;11.80;1.52;;;8.20;99.80;;;;;;5012881;28;20037;-74
2023/10/14 02:08:13;;;;;;;5.97;1.20;;;8.20;99.60;;;;;;5029343;28;20048;-75
2023/10/14 02:10:38;;;;;;;15.13;2.60;;;8.30;99.30;;;;;;5013298;28;20032;-76
2023/10/14 02:13:04;;;;;;;7.88;1.48;;;8.30;99.20;;;;;;5029586;28;20148;-75
2023/10/14 02:15:29;;;;;;;12.40;1.85;;;8.30;99.20;;;;;;5030275;28;20848;-76
2023/10/14 02:17:55;;;;;;;6.07;1.30;;;8.30;99.30;;;;;;5018282;28;20559;-75
2023/10/14 02:20:27;;;;;;;12.23;2.00;;;8.30;99.40;;;;;;5037671;28;20125;-75
2023/10/14 02:22:57;;;;;;;11.88;1.92;;;8.20;99.30;;;;;;5023002;28;20428;-75
2023/10/14 02:25:27;;;;;;;13.25;1.75;;;8.20;99.50;;;;;;5032823;28;20071;-75
2023/10/14 02:27:54;;;;;;;11.63;1.95;;;8.20;99.60;;;;;;5019870;28;20032;-75
2023/10/14 02:30:19;;;;;;;15.02;2.80;;;8.10;99.70;;;;;;5029808;28;20036;-75
2023/10/14 02:32:45;;;;;;;15.05;1.70;;;8.20;99.80;;;;;;5022225;28;20061;-75
2023/10/14 02:35:15;;;;;;;12.23;2.00;;;8.10;99.70;;;;;;5031417;28;20263;-75
2023/10/14 02:37:41;;;;;;;9.13;1.50;;;8.10;99.60;;;;;;5013017;28;20033;-75
2023/10/14 02:40:23;;;;;;;13.45;1.70;;;8.10;99.70;;;;;;5034078;28;20040;-75
2023/10/14 02:42:51;;;;;;;10.30;1.80;;;8.10;99.60;;;;;;5021201;28;20029;-75
2023/10/14 02:45:16;;;;;;;12.65;2.42;;;8.10;99.60;;;;;;5027241;28;20036;-75
2023/10/14 02:47:42;;;;;;;10.80;1.73;;;8.10;99.60;;;;;;5024906;28;20064;-76
2023/10/14 02:50:11;;;;;;;10.50;1.38;;;8.10;99.50;;;;;;5035500;28;20047;-76
2023/10/14 02:52:38;;;;;;;12.23;1.88;;;8.10;99.50;;;;;;5026606;28;20033;-76
2023/10/14 02:55:25;;;;;;;12.68;1.80;;;8.10;99.60;;;;;;5037573;28;20499;-76
2023/10/14 02:57:50;;;;;;;10.07;1.67;;;8.10;99.50;;;;;;5015930;28;20033;-74
2023/10/14 03:00:23;;;;;;;18.52;2.58;;;8.10;99.40;;;;;;5034065;28;20044;-74
2023/10/14 03:02:54;;;;;;;12.73;1.50;;;8.10;99.40;;;;;;5024071;28;20111;-76
2023/10/14 03:05:52;;;;;;;17.75;1.95;;;8.00;99.50;;;;;;5029738;28;20176;-76
2023/10/14 03:08:10;;;;;;;13.70;1.83;;;8.00;99.50;;;;;;5025532;28;20041;-74
2023/10/14 03:10:39;;;;;;;8.60;1.83;;;8.00;99.50;;;;;;5035084;28;20076;-74
2023/10/14 03:13:11;;;;;;;;;;;8.10;99.40;;;;;;5023189;28;20168;-74
2023/10/14 03:15:38;;;;;;;16.50;2.47;;;8.10;99.40;;;;;;5034803;28;20311;-75
2023/10/14 03:18:06;;;;;;;11.32;1.38;;;8.10;99.30;;;;;;5019910;28;20035;-75
2023/10/14 03:23:09;;;;;;;12.40;2.00;;;8.10;99.10;;;;;;5032774;28;20037;-72
2023/10/14 03:25:35;;;;;;;11.88;1.80;;;8.10;99.10;;;;;;5035527;28;20505;-75
2023/10/14 03:28:12;;;;;;;10.50;1.75;;;8.10;99.00;;;;;;5037479;28;20039;-75
2023/10/14 03:30:44;;;;;;;7.82;1.60;;;8.10;99.10;;;;;;5037208;28;20299;-75
2023/10/14 03:33:11;;;;;;;8.00;1.48;;;8.10;99.20;;;;;;5036620;28;20043;-75
2023/10/14 03:35:38;;;;;;;8.27;1.65;;;8.20;98.90;;;;;;5033478;28;20048;-76
2023/10/14 03:38:15;;;;;;;14.20;2.03;;;8.20;98.70;;;;;;5059215;28;20056;-76
2023/10/14 03:41:02;;;;;;;6.75;1.23;;;8.30;98.70;;;;;;5032054;28;20032;-74
2023/10/14 03:43:28;;;;;;;12.07;1.67;;;8.30;98.40;;;;;;5031537;28;20093;-76
2023/10/14 03:46:03;;;;;;;11.80;2.13;;;8.40;98.50;;;;;;5019313;28;20036;-75
2023/10/14 03:48:35;;;;;;;10.80;1.58;;;8.40;98.30;;;;;;5036362;28;20041;-76
2023/10/14 03:51:04;;;;;;;11.18;1.40;;;8.40;98.40;;;;;;5020540;28;20040;-75
2023/10/14 03:53:31;;;;;;;6.82;1.15;;;8.50;98.00;;;;;;5041295;28;20142;-75
2023/10/14 03:55:59;;;;;;;6.28;2.17;;;8.50;97.90;;;;;;5024728;28;20041;-75
2023/10/14 03:58:25;;;;;;;12.65;1.33;;;8.50;98.00;;;;;;5033386;28;20040;-75
2023/10/14 04:00:52;;;;;;;11.45;1.52;;;8.60;97.80;;;;;;5026801;28;20047;-75
2023/10/14 04:03:51;;;;;;;7.38;1.40;;;8.60;97.70;;;;;;5037993;28;20378;-75
2023/10/14 04:06:07;;;;;;;12.20;1.63;;;8.60;97.50;;;;;;5019636;28;20033;-75
2023/10/14 04:08:39;;;;;;;12.50;1.38;;;8.60;97.50;;;;;;5034769;28;20037;-75
2023/10/14 04:11:13;;;;;;;13.57;1.40;;;8.60;97.40;;;;;;5017073;28;20041;-75
2023/10/14 04:14:22;;;;;;;9.50;1.40;;;8.60;97.40;;;;;;5033328;28;20061;-75
2023/10/14 04:16:49;;;;;;;11.35;1.75;;;8.80;96.90;;;;;;5019907;28;20033;-75
2023/10/14 04:19:53;;;;;;;4.65;1.05;;;8.70;96.90;;;;;;5033462;28;20166;-75
2023/10/14 04:22:25;;;;;;;10.13;1.63;;;8.80;96.70;;;;;;5029448;28;20035;-76
2023/10/14 04:24:50;;;;;;;11.43;1.50;;;8.90;96.40;;;;;;5033382;28;20460;-75
2023/10/14 04:27:17;;;;;;;10.43;1.65;;;9.00;95.90;;;;;;5022018;28;20713;-75
2023/10/14 04:29:51;;;;;;;6.07;1.10;;;9.00;96.10;;;;;;5039188;28;21083;-75
2023/10/14 04:32:27;;;;;;;8.63;2.22;;;9.00;96.00;;;;;;5023334;28;20072;-75
2023/10/14 04:34:54;;;;;;;8.00;1.20;;;9.00;95.90;;;;;;5038705;28;20028;-75
2023/10/14 04:37:21;;;;;;;8.20;1.20;;;9.00;95.90;;;;;;5021885;28;20060;-73
2023/10/14 04:39:48;;;;;;;9.15;1.40;;;9.00;95.80;;;;;;5035444;28;20030;-73
2023/10/14 04:42:29;;;;;;;12.77;1.40;;;9.10;95.70;;;;;;5024358;28;20025;-76
2023/10/14 04:44:59;;;;;;;10.88;1.52;;;9.00;95.80;;;;;;5031335;28;20033;-74
2023/10/14 04:47:44;;;;;;;11.27;1.52;;;9.00;96.00;;;;;;5026736;28;20051;-74
2023/10/14 04:50:14;;;;;;;14.82;1.70;;;9.00;96.00;;;;;;5035660;28;20037;-74
2023/10/14 04:52:42;;;;;;;9.93;1.15;;;9.00;95.90;;;;;;5024083;28;20238;-73
2023/10/14 04:55:25;;;;;;;12.48;2.17;;;9.10;95.80;;;;;;5035534;28;20040;-75
2023/10/14 04:58:56;;;;;;;9.55;1.77;;;9.10;95.70;;;;;;5018738;28;20029;-76
2023/10/14 05:00:42;;;;;;;12.50;1.48;;;9.10;95.60;;;;;;5037029;28;20041;-76
2023/10/14 05:03:12;;;;;;;11.85;1.45;;;9.00;95.90;;;;;;5025741;28;20041;-76
2023/10/14 05:05:41;;;;;;;10.85;1.30;;;8.90;95.90;;;;;;5028380;28;20135;-76
2023/10/14 05:08:12;;;;;;;7.25;1.48;;;8.90;96.10;;;;;;5016982;28;20048;-76
2023/10/14 05:10:41;;;;;;;10.63;1.58;;;8.80;96.30;;;;;;5036992;28;20052;-75
2023/10/14 05:13:09;;;;;;;10.75;2.00;;;8.70;96.40;;;;;;5020476;28;20122;-76
2023/10/14 05:15:41;;;;;;;8.50;1.38;;;8.70;96.50;;;;;;5039554;28;20025;-75
2023/10/14 05:18:14;;;;;;;10.68;1.20;;;8.70;96.80;;;;;;5021096;28;20044;-75
2023/10/14 05:21:09;;;;;;;15.23;2.30;;;8.60;96.70;;;;;;5036100;28;20033;-76
2023/10/14 05:23:30;;;;;;;13.20;2.00;;;8.50;96.90;;;;;;5022958;28;20062;-76
2023/10/14 05:25:58;;;;;;;14.80;1.38;;;8.60;96.80;;;;;;5027664;28;20076;-77
2023/10/14 05:28:33;;;;;;;11.27;1.67;;;8.70;96.90;;;;;;5027189;28;20039;-75
2023/10/14 05:31:02;;;;;;;11.20;1.00;;;8.60;96.90;;;;;;5030879;28;20043;-75
2023/10/14 05:33:31;;;;;;;4.82;1.20;;;8.50;97.10;;;;;;5019005;28;20031;-74
2023/10/14 05:35:57;;;;;;;13.35;1.40;;;8.50;97.30;;;;;;5033737;28;20032;-77
2023/10/14 05:38:23;;;;;;;12.75;1.80;;;8.40;97.30;;;;;;5015468;28;20734;-74
2023/10/14 05:40:55;;;;;;;11.82;1.30;;;8.40;97.10;;;;;;5037095;28;20503;-74
2023/10/14 05:43:22;;;;;;;10.02;1.33;;;8.50;97.00;;;;;;5022091;28;20501;-74
2023/10/14 05:45:48;;;;;;;7.55;0.95;;;8.50;97.00;;;;;;5030189;28;20042;-74
2023/10/14 05:48:14;;;;;;;9.73;1.42;;;8.50;96.90;;;;;;5025637;28;20048;-75
2023/10/14 05:50:40;;;;;;;14.15;1.40;;;8.40;97.00;;;;;;5034879;28;20037;-75
2023/10/14 05:53:09;;;;;;;13.27;1.63;;;8.50;97.00;;;;;;5023788;28;20044;-76
2023/10/14 05:55:35;;;;;;;9.68;1.20;;;8.60;96.80;;;;;;5032626;28;20029;-75
2023/10/14 05:58:01;;;;;;;6.80;1.92;;;8.70;96.40;;;;;;5033485;28;20407;-74
2023/10/14 06:00:28;;;;;;;13.30;1.42;;;8.70;96.20;;;;;;5023077;28;20029;-74
2023/10/14 06:02:55;;;;;;;9.07;1.25;;;8.80;95.80;;;;;;5034259;28;20116;-75
2023/10/14 06:05:25;;;;;;;10.93;1.60;;;8.80;95.70;;;;;;5014969;28;20079;-74
2023/10/14 06:07:59;;;;;;;13.85;1.48;;;8.90;95.50;;;;;;5034351;28;20040;-74
2023/10/14 06:10:26;;;;;;;12.25;1.42;;;8.90;95.50;;;;;;5022459;28;20493;-75
2023/10/14 06:12:52;;;;;;;11.32;2.25;;;8.90;95.30;;;;;;5030709;28;20110;-75
2023/10/14 06:15:19;;;;;;;9.77;1.75;;;8.90;95.00;;;;;;5020403;28;20121;-75
2023/10/14 06:17:46;;;;;;;9.20;1.33;;;9.00;95.30;;;;;;5031730;28;20293;-75
2023/10/14 06:20:16;;;;;;;10.18;1.67;;;9.00;95.20;;;;;;5030219;28;20033;-74
2023/10/14 06:22:43;;;;;;;9.15;1.10;;;8.90;94.90;;;;;;5043929;28;20052;-76
2023/10/14 06:25:17;;;;;;;10.07;1.45;;;8.90;94.80;;;;;;5024329;28;20035;-75
2023/10/14 06:27:45;;;;;;;13.20;1.83;;;8.90;94.80;;;;;;5047300;28;20842;-75
2023/10/14 06:30:22;;;;;;;9.50;1.50;;;9.00;94.80;;;;;;5034293;28;20041;-74
2023/10/14 06:32:52;;;;;;;8.10;1.40;;;8.90;94.80;;;;;;5045624;28;20044;-74
2023/10/14 06:35:19;;;;;;;10.82;1.67;;;8.90;94.90;;;;;;5031011;28;20043;-74
2023/10/14 06:37:46;;;;;;;6.97;1.35;;;8.90;95.00;;;;;;5045550;28;20464;-74
2023/10/14 06:40:14;;;;;;;6.97;0.93;;;8.80;95.20;;;;;;5034323;28;20111;-75
2023/10/14 06:42:43;;;;;;;11.20;1.55;;;8.80;95.50;;;;;;5047253;28;20389;-75
2023/10/14 06:45:13;;;;;;;11.75;1.45;;;8.90;95.00;;;;;;5026367;28;20388;-75
2023/10/14 06:47:45;;;;;;;7.25;1.23;;;9.00;95.00;;;;;;5043232;28;20124;-75
2023/10/14 06:50:12;;;;;;;7.57;1.35;;;9.00;94.90;;;;;;5045807;28;20033;-74
2023/10/14 06:52:39;;;;;;;6.97;1.50;;;9.00;95.00;;;;;;5039473;28;20132;-75
2023/10/14 06:55:07;;;;;;;11.20;1.50;;;9.00;95.10;;;;;;5033717;28;20750;-74
2023/10/14 06:57:35;;;;;;;13.43;1.95;;;9.00;94.90;;;;;;5033203;28;20037;-74
2023/10/14 07:00:08;;;;;;;3.55;0.95;;;9.00;95.00;;;;;;5037599;28;20025;-74
2023/10/14 07:02:35;;;;;;;9.20;1.02;;;9.10;94.90;;;;;;5031174;28;20035;-74
2023/10/14 07:05:02;;;;;;;10.80;1.25;;;9.10;94.90;;;;;;5039136;28;20525;-74
2023/10/14 07:07:27;;;;;;;14.15;1.65;;;9.20;94.60;;;;;;5024656;28;20508;-75
2023/10/14 07:09:54;;;;;;;13.57;1.45;;;9.30;94.60;;;;;;5042052;28;20029;-76
2023/10/14 07:12:21;;;;;;;16.42;1.63;;;9.40;94.30;;;;;;5023966;28;21220;-75
2023/10/14 07:14:47;;;;;;;10.10;1.40;;;9.40;94.20;;;;;;5038317;28;20029;-75
2023/10/14 07:17:21;;;;;;;15.60;1.40;;;9.40;94.30;;;;;;5024562;28;20827;-75
2023/10/14 07:19:47;;;;;;;12.18;1.52;;;9.40;94.30;;;;;;5038107;28;20052;-75
2023/10/14 07:22:15;;;;;;;6.03;1.30;;;9.40;94.70;;;;;;5030487;28;20429;-75
2023/10/14 07:24:41;;;;;;;6.85;1.23;;;9.50;94.40;;;;;;5038526;28;21148;-75
2023/10/14 07:27:07;;;;;;;14.60;2.33;;;9.50;94.20;;;;;;5026445;28;20072;-75
2023/10/14 07:29:32;;;;;;;12.55;1.08;;;9.60;94.30;;;;;;5040962;28;20103;-74
2023/10/14 07:31:58;;;;;;;9.43;1.23;;;9.60;94.00;;;;;;5026371;28;20045;-76
2023/10/14 07:34:25;;;;;;;9.23;1.40;;;9.70;94.20;;;;;;5040680;28;20053;-76
2023/10/14 07:36:53;;;;;;;10.05;1.30;;;9.70;94.10;;;;;;5028546;28;20515;-73
2023/10/14 07:39:27;;;;;;;9.80;1.20;;;9.70;93.80;;;;;;5033053;28;20102;-74
2023/10/14 07:41:53;;;;;;;9.77;1.33;;;9.80;93.80;;;;;;5027204;28;20036;-74
2023/10/14 07:44:20;;;;;;;17.00;1.23;;;9.90;93.90;;;;;;5047156;28;20040;-74
2023/10/14 07:46:46;;;;;;;9.52;1.45;;;9.90;93.90;;;;;;5027750;28;20060;-75
2023/10/14 07:49:13;;;;;;;18.52;1.65;;;10.00;93.80;;;;;;5041727;28;20120;-74
2023/10/14 07:51:39;;;;;;;12.73;1.60;;;10.00;93.20;;;;;;5038713;28;20051;-74
2023/10/14 07:54:07;;;;;;;12.48;1.58;;;10.10;93.20;;;;;;5020570;28;20492;-74
2023/10/14 07:56:32;;;;;;;13.63;1.33;;;10.20;93.10;;;;;;5035916;28;20075;-76
2023/10/14 07:58:58;;;;;;;12.90;1.38;;;10.20;92.90;;;;;;5020265;28;20404;-75
2023/10/14 08:01:25;;;;;;;9.50;1.45;;;10.30;92.90;;;;;;5037007;28;20048;-75
2023/10/14 08:03:56;;;;;;;10.60;1.70;;;10.30;92.60;;;;;;5030581;28;20035;-74
2023/10/14 08:06:22;;;;;;;8.25;1.02;;;10.40;92.40;;;;;;5033516;28;20029;-74
2023/10/14 08:08:48;;;;;;;9.55;1.40;;;10.50;91.90;;;;;;5023327;28;20074;-74
2023/10/14 08:11:14;;;;;;;10.13;1.25;;;10.60;92.00;;;;;;5040625;28;20102;-75
2023/10/14 08:13:42;;;;;;;12.43;1.98;;;10.60;92.20;;;;;;5021425;28;20036;-74
2023/10/14 08:16:08;;;;;;;6.75;1.40;;;10.60;91.90;;;;;;5035506;28;20210;-75
2023/10/14 08:18:34;;;;;;;9.48;1.30;;;10.70;91.90;;;;;;5025225;28;20048;-75
2023/10/14 08:21:00;;;;;;;7.88;1.65;;;10.70;92.20;;;;;;5038592;28;20032;-75
2023/10/14 08:23:28;;;;;;;10.35;1.38;;;10.80;91.30;;;;;;5024457;28;20025;-74
2023/10/14 08:25:54;;;;;;;8.55;1.23;;;10.90;90.90;;;;;;5030384;28;20146;-74
2023/10/14 08:28:21;;;;;;;13.68;1.50;;;11.10;91.00;;;;;;5027498;28;20120;-76
2023/10/14 08:30:49;;;;;;;7.97;2.17;;;11.10;91.20;;;;;;5041228;28;20120;-73
2023/10/14 08:33:18;;;;;;;12.55;1.83;;;11.20;90.70;;;;;;5035410;28;21219;-76
2023/10/14 08:35:44;;;;;;;;;;;11.30;90.40;;;;;;5041204;28;20033;-74
2023/10/14 08:38:13;;;;;;;6.50;1.02;;;11.40;90.30;;;;;;5036291;28;19927;-76
2023/10/14 08:40:40;;;;;;;6.10;1.10;;;11.40;90.00;;;;;;5023714;28;20128;-74
2023/10/14 08:43:16;;;;;;;4.82;1.08;;;11.50;89.70;;;;;;5038190;28;20272;-74
2023/10/14 08:45:47;;;;;;;7.18;1.10;;;11.60;89.60;;;;;;5022767;28;20343;-75
2023/10/14 08:48:16;;;;;;;10.98;1.67;;;11.70;89.30;;;;;;5042328;28;20584;-75
2023/10/14 08:50:42;;;;;;;9.17;1.07;;;11.80;88.10;;;;;;5028634;28;20059;-74
2023/10/14 08:53:10;;;;;;;10.15;1.38;;;11.80;88.20;;;;;;5032451;28;20284;-76
2023/10/14 08:55:38;;;;;;;9.00;1.30;;;11.90;88.00;;;;;;5027425;28;20033;-75
2023/10/14 08:58:05;;;;;;;9.52;1.33;;;11.90;87.40;;;;;;5036970;28;20042;-75
2023/10/14 09:00:36;;;;;;;11.48;1.40;;;12.10;88.00;;;;;;5021629;28;21164;-75
2023/10/14 09:03:05;;;;;;;11.13;1.52;;;12.10;87.40;;;;;;5040706;28;20589;-76
2023/10/14 09:05:31;;;;;;;6.30;1.38;;;12.20;87.20;;;;;;5047345;28;20009;-76
2023/10/14 09:07:58;;;;;;;12.43;1.98;;;12.30;86.10;;;;;;5052317;28;20041;-76
2023/10/14 09:10:24;;;;;;;7.38;1.23;;;12.40;86.20;;;;;;5045104;28;20172;-76
2023/10/14 09:12:58;;;;;;;5.60;1.25;;;12.40;86.00;;;;;;5031875;28;20040;-74
2023/10/14 09:15:26;;;;;;;10.20;1.30;;;12.50;85.20;;;;;;5021938;28;20037;-77
2023/10/14 09:17:55;;;;;;;4.68;0.90;;;12.60;83.20;;;;;;5038447;28;20041;-77
2023/10/14 09:20:38;;;;;;;12.70;1.55;;;12.60;83.30;;;;;;5022179;28;20025;-76
2023/10/14 09:23:21;;;;;;;9.38;1.60;;;12.70;82.10;;;;;;5039035;28;20036;-76
2023/10/14 09:25:50;;;;;;;9.48;1.00;;;12.60;81.70;;;;;;5028289;28;20041;-76
2023/10/14 09:28:20;;;;;;;10.40;1.20;;;12.70;82.50;;;;;;5064157;28;20039;-78
2023/10/14 09:30:49;;;;;;;10.40;1.92;;;12.70;83.70;;;;;;5052405;28;20036;-76
2023/10/14 09:33:19;;;;;;;12.50;1.40;;;12.90;83.20;;;;;;5061373;28;20048;-77
2023/10/14 09:35:48;;;;;;;6.70;1.02;;;13.00;83.90;;;;;;5049801;28;20029;-77
2023/10/14 09:38:18;;;;;;;12.68;1.30;;;13.10;82.10;;;;;;5065089;28;20037;-77
2023/10/14 09:40:50;;;;;;;8.18;1.15;;;13.10;82.80;;;;;;5047735;28;20048;-75
2023/10/14 09:43:17;;;;;;;9.65;1.45;;;13.20;81.30;;;;;;5051782;28;20033;-74
2023/10/14 09:45:46;;;;;;;9.00;1.15;;;13.10;81.10;;;;;;5021894;28;20055;-77
2023/10/14 09:48:14;;;;;;;7.77;1.63;;;13.10;80.80;;;;;;5035920;28;20018;-77
2023/10/14 09:50:41;;;;;;;5.97;1.05;;;13.20;82.00;;;;;;5039519;28;20477;-77
2023/10/14 09:53:08;;;;;;;10.43;1.33;;;13.30;82.00;;;;;;5023167;28;20068;-76
2023/10/14 09:55:37;;;;;;;6.55;1.23;;;13.30;80.00;;;;;;5037554;28;20086;-77
2023/10/14 09:58:04;;;;;;;7.13;1.10;;;13.30;80.10;;;;;;5028859;28;20041;-76
2023/10/14 10:00:33;;;;;;;7.80;1.10;;;13.30;79.80;;;;;;5030224;28;20029;-77
2023/10/14 10:03:01;;;;;;;;;;;13.30;80.80;;;;;;5024043;28;20033;-76
2023/10/14 10:05:38;;;;;;;9.13;1.55;;;13.40;80.30;;;;;;5028759;28;20007;-75
2023/10/14 10:08:42;;;;;;;8.55;1.10;;;13.50;79.70;;;;;;5021766;28;20036;-75
2023/10/14 10:11:10;;;;;;;6.38;0.90;;;13.50;77.30;;;;;;5033635;28;20033;-75
2023/10/14 10:13:38;;;;;;;8.82;1.40;;;13.50;77.60;;;;;;5016967;28;20033;-75
2023/10/14 10:16:05;;;;;;;8.93;1.30;;;13.60;77.80;;;;;;5028163;28;20029;-75
2023/10/14 10:18:56;;;;;;;10.50;1.33;;;13.70;77.70;;;;;;5023293;28;20528;-76
2023/10/14 10:21:29;;;;;;;5.82;0.90;;;13.70;76.10;;;;;;5029663;28;20029;-75
2023/10/14 10:24:19;;;;;;;5.90;1.33;;;13.80;78.20;;;;;;5020780;28;20041;-76
2023/10/14 10:27:06;;;;;;;7.05;1.00;;;14.00;77.10;;;;;;5025595;28;20037;-76
2023/10/14 10:29:33;;;;;;;2.72;0.80;;;14.00;75.40;;;;;;5031762;28;20044;-76
2023/10/14 10:32:20;;;;;;;3.67;0.90;;;14.20;75.30;;;;;;5030796;28;20036;-77
2023/10/14 10:35:06;;;;;;;5.40;0.98;;;14.10;74.00;;;;;;5031310;28;20032;-77
2023/10/14 10:37:53;;;;;;;5.22;1.13;;;14.20;73.60;;;;;;5023404;28;20033;-75
2023/10/14 10:40:22;;;;;;;4.80;1.10;;;14.20;73.50;;;;;;5030032;28;20048;-75
2023/10/14 10:42:53;;;;;;;4.82;1.15;;;14.30;72.40;;;;;;5023623;28;20074;-75
2023/10/14 10:45:21;;;;;;;6.13;1.50;;;14.40;72.30;;;;;;5034871;28;20037;-75
2023/10/14 10:47:52;;;;;;;4.97;1.00;;;14.40;70.10;;;;;;5021072;28;20120;-75
2023/10/14 10:50:18;;;;;;;7.05;1.63;;;14.40;72.10;;;;;;5034107;28;20037;-75
2023/10/14 10:52:54;;;;;;;4.15;1.30;;;14.50;70.20;;;;;;5027600;28;20052;-75
2023/10/14 10:55:23;;;;;;;6.07;1.13;;;14.60;70.70;;;;;;5029682;28;20032;-76
2023/10/14 10:57:56;;;;;;;4.50;1.10;;;14.70;69.80;;;;;;5033995;28;20032;-76
2023/10/14 11:00:23;;;;;;;8.20;1.10;;;14.70;67.80;;;;;;5016768;28;21722;-75
2023/10/14 11:02:54;;;;;;;6.50;1.35;;;14.80;68.40;;;;;;5030797;28;20039;-75
2023/10/14 11:05:21;;;;;;;11.00;1.25;;;14.70;67.90;;;;;;5019131;28;20079;-74
2023/10/14 11:07:48;;;;;;;3.63;0.93;;;14.80;68.20;;;;;;5030650;28;20123;-74
2023/10/14 11:10:14;;;;;;;5.85;0.95;;;14.60;68.00;;;;;;5020219;28;20131;-75
2023/10/14 11:12:39;;;;;;;6.93;1.13;;;14.60;69.60;;;;;;5029428;28;20024;-76
2023/10/14 11:15:18;;;;;;;5.85;0.80;;;14.70;68.00;;;;;;5021126;28;20120;-76
2023/10/14 11:17:44;;;;;;;5.70;0.90;;;14.90;67.90;;;;;;5030023;28;20037;-76
2023/10/14 11:20:14;;;;;;;5.43;1.00;;;15.30;65.90;;;;;;5017511;28;20036;-76
2023/10/14 11:22:41;;;;;;;7.93;1.25;;;15.70;65.00;;;;;;5033959;28;21230;-75
2023/10/14 11:25:07;;;;;;;4.35;0.70;;;16.00;63.90;;;;;;5020886;28;20052;-76
2023/10/14 11:27:33;;;;;;;5.28;1.13;;;16.00;59.70;;;;;;5026682;28;20720;-76
2023/10/14 11:29:59;;;;;;;4.30;1.27;;;15.70;61.70;;;;;;5024248;28;20084;-76
2023/10/14 11:32:26;;;;;;;7.38;0.82;;;15.80;62.90;;;;;;5036717;28;20311;-77
2023/10/14 11:34:52;;;;;;;2.70;0.85;;;16.00;63.60;;;;;;5020965;28;20099;-76
2023/10/14 11:37:18;;;;;;;5.38;0.93;;;16.20;60.10;;;;;;5038661;28;20044;-76
2023/10/14 11:39:46;;;;;;;5.22;0.90;;;15.90;58.90;;;;;;5020924;28;20032;-75
2023/10/14 11:42:13;;;;;;;2.70;0.60;;;15.40;62.40;;;;;;5036300;28;20036;-74
2023/10/14 11:44:39;;;;;;;4.20;0.80;;;15.30;64.30;;;;;;5027536;28;20029;-75
2023/10/14 11:47:07;;;;;;;5.45;0.70;;;14.90;62.90;;;;;;5029812;28;20095;-75
2023/10/14 11:49:35;;;;;;;3.78;0.75;;;14.90;64.70;;;;;;5037863;28;20026;-75
2023/10/14 11:52:04;;;;;;;3.92;0.70;;;14.90;65.00;;;;;;5020833;28;20036;-75
2023/10/14 11:54:30;;;;;;;4.65;0.55;;;15.10;64.30;;;;;;5031321;28;20159;-75
2023/10/14 11:56:55;;;;;;;2.97;0.60;;;15.20;65.20;;;;;;5028309;28;20032;-76
2023/10/14 11:59:21;;;;;;;4.13;0.80;;;15.20;64.90;;;;;;5061760;28;20033;-75
2023/10/14 12:01:47;;;;;;;5.90;0.68;;;15.30;66.00;;;;;;5025987;28;20048;-75
2023/10/14 12:04:14;;;;;;;5.60;0.82;;;15.50;63.80;;;;;;5038068;28;20037;-75
2023/10/14 12:06:40;;;;;;;2.13;0.82;;;15.90;61.50;;;;;;5019012;28;20087;-76
2023/10/14 12:09:06;;;;;;;3.40;0.77;;;16.20;61.30;;;;;;5037151;28;20065;-75
2023/10/14 12:11:41;;;;;;;3.90;0.75;;;16.10;59.30;;;;;;5022120;28;20108;-76
2023/10/14 12:14:10;;;;;;;4.10;0.98;;;16.00;59.50;;;;;;5029522;28;20524;-76
2023/10/14 12:16:37;;;;;;;3.72;0.98;;;15.60;62.30;;;;;;5020133;28;20082;-75
2023/10/14 12:19:04;;;;;;;3.03;0.70;;;15.30;62.10;;;;;;5034530;28;21341;-76
2023/10/14 12:21:30;;;;;;;4.88;1.00;;;15.00;64.40;;;;;;5023331;28;20025;-76
2023/10/14 12:24:00;;;;;;;4.25;0.93;;;14.90;65.20;;;;;;5034032;28;21093;-76
2023/10/14 12:26:28;;;;;;;5.53;0.60;;;15.00;65.70;;;;;;5019509;28;20460;-74
2023/10/14 12:28:54;;;;;;;2.63;0.50;;;15.10;62.20;;;;;;5033927;28;20393;-75
2023/10/14 12:31:20;;;;;;;3.33;0.57;;;15.30;58.90;;;;;;5022938;28;20028;-77
2023/10/14 12:33:47;;;;;;;2.25;0.57;;;15.40;58.20;;;;;;5031268;28;21083;-74
2023/10/14 12:36:14;;;;;;;4.25;0.70;;;15.80;57.90;;;;;;5032686;28;20040;-74
2023/10/14 12:38:44;;;;;;;1.80;0.73;;;16.10;55.60;;;;;;5027763;28;20045;-75
2023/10/14 12:41:21;;;;;;;3.65;0.82;;;16.50;55.60;;;;;;5032131;28;20029;-75
2023/10/14 12:43:51;;;;;;;3.58;0.60;;;17.00;54.90;;;;;;5019320;28;20063;-75
2023/10/14 12:48:43;;;;;;;5.43;0.80;;;17.60;53.70;;;;;;5022288;28;20061;-77
2023/10/14 12:51:12;;;;;;;7.20;0.70;;;17.50;52.50;;;;;;5036784;28;20546;-74
2023/10/14 12:53:45;;;;;;;3.47;0.63;;;17.30;52.90;;;;;;5013595;28;20124;-75
2023/10/14 12:56:13;;;;;;;2.67;0.63;;;17.10;54.20;;;;;;5032585;28;20532;-75
2023/10/14 12:58:42;;;;;;;3.05;0.63;;;17.00;53.70;;;;;;5024480;28;20029;-75
2023/10/14 13:01:13;;;;;;;2.78;0.50;;;16.70;54.20;;;;;;5029305;28;20065;-77
2023/10/14 13:03:41;;;;;;;1.77;0.60;;;16.70;55.30;;;;;;5021952;28;20040;-74
2023/10/14 13:06:07;;;;;;;2.20;0.68;;;16.60;53.80;;;;;;5030133;28;20033;-75
2023/10/14 13:08:33;;;;;;;4.03;0.70;;;17.00;52.60;;;;;;5016240;28;20072;-74
2023/10/14 13:10:59;;;;;;;1.77;0.40;;;17.30;51.50;;;;;;5034711;28;20040;-75
2023/10/14 13:13:25;;;;;;;1.70;0.50;;;16.90;51.10;;;;;;5021164;28;20112;-74